sensor_id;sensor_type;location;lat;lon;timestamp;temperature;humidity
51486;DHT22;37565;51.352;6.412;2023-03-01T10:48:06;18.80;77.60
51486;DHT22;37565;51.352;6.412;2023-03-01T10:50:36;17.80;77.70
51486;DHT22;37565;51.352;6.412;2023-03-01T10:53:21;17.90;77.70
51486;DHT22;37565;51.352;6.412;2023-03-01T10:55:58;18.00;77.30
51486;DHT22;37565;51.352;6.412;2023-03-01T10:58:27;18.10;76.90
51486;DHT22;37565;51.352;6.412;2023-03-01T11:00:57;18.20;76.80
51486;DHT22;37565;51.352;6.412;2023-03-01T11:03:28;18.30;76.40
51486;DHT22;37565;51.352;6.412;2023-03-01T11:06:00;18.20;75.40
51486;DHT22;37565;51.352;6.412;2023-03-01T11:08:35;18.20;75.40
51486;DHT22;37565;51.352;6.412;2023-03-01T11:13:55;18.20;75.90
51486;DHT22;37565;51.352;6.412;2023-03-01T11:16:24;18.20;76.00
51486;DHT22;37565;51.352;6.412;2023-03-01T11:19:16;18.10;76.00
51486;DHT22;37565;51.352;6.412;2023-03-01T11:21:53;18.10;76.40
51486;DHT22;37565;51.352;6.412;2023-03-01T11:24:29;18.00;76.60
51486;DHT22;37565;51.352;6.412;2023-03-01T11:27:01;18.00;77.40
51486;DHT22;37565;51.352;6.412;2023-03-01T11:29:34;18.00;76.70
51486;DHT22;37565;51.352;6.412;2023-03-01T11:32:14;18.00;77.10
51486;DHT22;37565;51.352;6.412;2023-03-01T11:34:48;18.00;76.90
51486;DHT22;37565;51.352;6.412;2023-03-01T11:37:22;18.00;77.00
51486;DHT22;37565;51.352;6.412;2023-03-01T11:39:59;18.10;76.80
51486;DHT22;37565;51.352;6.412;2023-03-01T11:42:42;18.10;76.70
51486;DHT22;37565;51.352;6.412;2023-03-01T11:45:13;18.10;76.70
51486;DHT22;37565;51.352;6.412;2023-03-01T11:47:54;18.00;75.50
51486;DHT22;37565;51.352;6.412;2023-03-01T11:50:30;17.90;75.70
51486;DHT22;37565;51.352;6.412;2023-03-01T11:53:22;17.90;76.20
51486;DHT22;37565;51.352;6.412;2023-03-01T11:56:03;17.90;76.00
51486;DHT22;37565;51.352;6.412;2023-03-01T11:58:50;17.90;76.10
51486;DHT22;37565;51.352;6.412;2023-03-01T12:01:38;17.90;76.40
51486;DHT22;37565;51.352;6.412;2023-03-01T12:07:25;17.90;76.50
51486;DHT22;37565;51.352;6.412;2023-03-01T12:10:26;17.80;76.40
51486;DHT22;37565;51.352;6.412;2023-03-01T12:13:17;17.80;76.50
51486;DHT22;37565;51.352;6.412;2023-03-01T12:15:59;17.90;76.70
51486;DHT22;37565;51.352;6.412;2023-03-01T12:18:54;17.90;76.50
51486;DHT22;37565;51.352;6.412;2023-03-01T12:21:36;17.80;76.80
51486;DHT22;37565;51.352;6.412;2023-03-01T12:24:29;17.80;76.90
51486;DHT22;37565;51.352;6.412;2023-03-01T12:27:17;17.80;76.80
51486;DHT22;37565;51.352;6.412;2023-03-01T12:29:54;17.80;76.90
51486;DHT22;37565;51.352;6.412;2023-03-01T12:32:40;17.90;76.80
51486;DHT22;37565;51.352;6.412;2023-03-01T12:35:33;17.80;77.00
51486;DHT22;37565;51.352;6.412;2023-03-01T12:38:13;17.80;77.00
51486;DHT22;37565;51.352;6.412;2023-03-01T12:40:54;17.80;77.70
51486;DHT22;37565;51.352;6.412;2023-03-01T12:43:38;17.80;78.40
51486;DHT22;37565;51.352;6.412;2023-03-01T12:46:23;17.90;79.20
51486;DHT22;37565;51.352;6.412;2023-03-01T12:48:59;17.90;79.30
51486;DHT22;37565;51.352;6.412;2023-03-01T12:51:31;17.90;79.50
51486;DHT22;37565;51.352;6.412;2023-03-01T12:54:01;18.00;79.50
51486;DHT22;37565;51.352;6.412;2023-03-01T12:56:36;18.00;79.80
51486;DHT22;37565;51.352;6.412;2023-03-01T12:59:13;18.10;79.70
51486;DHT22;37565;51.352;6.412;2023-03-01T13:01:49;18.10;79.60
51486;DHT22;37565;51.352;6.412;2023-03-01T13:04:28;18.10;79.50
51486;DHT22;37565;51.352;6.412;2023-03-01T13:07:15;18.20;79.40
51486;DHT22;37565;51.352;6.412;2023-03-01T13:09:49;18.20;79.10
51486;DHT22;37565;51.352;6.412;2023-03-01T13:12:46;18.20;79.10
51486;DHT22;37565;51.352;6.412;2023-03-01T13:15:37;18.30;79.10
51486;DHT22;37565;51.352;6.412;2023-03-01T13:18:27;18.20;79.00
51486;DHT22;37565;51.352;6.412;2023-03-01T13:20:56;18.20;78.60
51486;DHT22;37565;51.352;6.412;2023-03-01T13:23:28;18.20;78.70
51486;DHT22;37565;51.352;6.412;2023-03-01T13:26:14;18.20;78.50
51486;DHT22;37565;51.352;6.412;2023-03-01T13:29:01;18.20;79.00
51486;DHT22;37565;51.352;6.412;2023-03-01T13:31:59;18.20;78.90
51486;DHT22;37565;51.352;6.412;2023-03-01T13:34:56;18.20;78.80
51486;DHT22;37565;51.352;6.412;2023-03-01T13:37:35;18.20;78.70
51486;DHT22;37565;51.352;6.412;2023-03-01T13:43:28;18.20;78.60
51486;DHT22;37565;51.352;6.412;2023-03-01T13:45:59;18.10;77.40
51486;DHT22;37565;51.352;6.412;2023-03-01T13:48:29;18.20;77.90
51486;DHT22;37565;51.352;6.412;2023-03-01T13:51:00;17.80;64.50
51486;DHT22;37565;51.352;6.412;2023-03-01T13:53:31;17.30;71.50
51486;DHT22;37565;51.352;6.412;2023-03-01T13:56:01;17.30;70.40
51486;DHT22;37565;51.352;6.412;2023-03-01T13:58:31;17.50;69.80
51486;DHT22;37565;51.352;6.412;2023-03-01T14:01:03;17.60;69.50
51486;DHT22;37565;51.352;6.412;2023-03-01T14:03:32;17.90;68.70
51486;DHT22;37565;51.352;6.412;2023-03-01T14:06:04;18.00;69.50
51486;DHT22;37565;51.352;6.412;2023-03-01T14:08:43;18.10;69.60
51486;DHT22;37565;51.352;6.412;2023-03-01T14:11:42;18.10;70.80
51486;DHT22;37565;51.352;6.412;2023-03-01T14:14:32;18.10;71.10
51486;DHT22;37565;51.352;6.412;2023-03-01T14:20:12;18.10;72.60
51486;DHT22;37565;51.352;6.412;2023-03-01T14:22:42;18.20;72.90
51486;DHT22;37565;51.352;6.412;2023-03-01T14:25:21;18.10;73.10
51486;DHT22;37565;51.352;6.412;2023-03-01T14:28:18;18.10;73.00
51486;DHT22;37565;51.352;6.412;2023-03-01T14:30:48;18.10;73.50
51486;DHT22;37565;51.352;6.412;2023-03-01T14:33:23;18.10;74.00
51486;DHT22;37565;51.352;6.412;2023-03-01T14:35:54;18.10;74.00
51486;DHT22;37565;51.352;6.412;2023-03-01T14:38:28;18.10;74.10
51486;DHT22;37565;51.352;6.412;2023-03-01T14:40:59;18.10;73.60
51486;DHT22;37565;51.352;6.412;2023-03-01T14:43:29;18.20;73.90
51486;DHT22;37565;51.352;6.412;2023-03-01T14:45:58;18.10;74.10
51486;DHT22;37565;51.352;6.412;2023-03-01T14:48:29;18.00;74.50
51486;DHT22;37565;51.352;6.412;2023-03-01T14:50:57;18.00;74.60
51486;DHT22;37565;51.352;6.412;2023-03-01T14:53:28;18.00;74.60
51486;DHT22;37565;51.352;6.412;2023-03-01T14:56:14;18.00;74.70
51486;DHT22;37565;51.352;6.412;2023-03-01T14:58:44;18.00;74.90
51486;DHT22;37565;51.352;6.412;2023-03-01T15:01:16;18.00;75.00
51486;DHT22;37565;51.352;6.412;2023-03-01T15:03:48;18.00;75.10
51486;DHT22;37565;51.352;6.412;2023-03-01T15:06:18;18.10;75.20
51486;DHT22;37565;51.352;6.412;2023-03-01T15:08:50;18.10;75.00
51486;DHT22;37565;51.352;6.412;2023-03-01T15:11:21;18.10;74.90
51486;DHT22;37565;51.352;6.412;2023-03-01T15:13:51;18.10;74.90
51486;DHT22;37565;51.352;6.412;2023-03-01T15:16:23;18.20;74.60
51486;DHT22;37565;51.352;6.412;2023-03-01T15:18:54;18.20;75.00
51486;DHT22;37565;51.352;6.412;2023-03-01T15:21:24;18.20;75.00
51486;DHT22;37565;51.352;6.412;2023-03-01T15:23:55;18.20;75.30
51486;DHT22;37565;51.352;6.412;2023-03-01T15:26:27;18.10;75.30
51486;DHT22;37565;51.352;6.412;2023-03-01T15:28:58;18.10;75.70
51486;DHT22;37565;51.352;6.412;2023-03-01T15:31:28;18.00;75.80
51486;DHT22;37565;51.352;6.412;2023-03-01T15:34:19;17.90;76.40
51486;DHT22;37565;51.352;6.412;2023-03-01T15:36:49;17.90;76.40
51486;DHT22;37565;51.352;6.412;2023-03-01T15:39:36;17.80;76.40
51486;DHT22;37565;51.352;6.412;2023-03-01T15:42:12;17.80;76.80
51486;DHT22;37565;51.352;6.412;2023-03-01T15:44:41;17.80;76.80
51486;DHT22;37565;51.352;6.412;2023-03-01T15:47:29;17.80;76.50
51486;DHT22;37565;51.352;6.412;2023-03-01T15:50:00;17.90;76.40
51486;DHT22;37565;51.352;6.412;2023-03-01T15:52:32;17.90;76.30
51486;DHT22;37565;51.352;6.412;2023-03-01T15:55:12;17.90;76.60
51486;DHT22;37565;51.352;6.412;2023-03-01T15:57:42;17.90;76.20
51486;DHT22;37565;51.352;6.412;2023-03-01T16:00:11;17.90;76.10
51486;DHT22;37565;51.352;6.412;2023-03-01T16:02:40;17.90;76.00
51486;DHT22;37565;51.352;6.412;2023-03-01T16:05:17;17.90;76.20
51486;DHT22;37565;51.352;6.412;2023-03-01T16:07:45;17.90;76.20
51486;DHT22;37565;51.352;6.412;2023-03-01T16:10:13;17.90;76.20
51486;DHT22;37565;51.352;6.412;2023-03-01T16:12:41;17.90;76.10
51486;DHT22;37565;51.352;6.412;2023-03-01T16:15:15;17.90;76.10
51486;DHT22;37565;51.352;6.412;2023-03-01T16:17:44;17.90;76.10
51486;DHT22;37565;51.352;6.412;2023-03-01T16:20:13;17.90;76.10
51486;DHT22;37565;51.352;6.412;2023-03-01T16:22:54;17.80;76.10
51486;DHT22;37565;51.352;6.412;2023-03-01T16:25:22;17.90;76.20
51486;DHT22;37565;51.352;6.412;2023-03-01T16:27:50;17.90;75.90
51486;DHT22;37565;51.352;6.412;2023-03-01T16:30:20;17.90;76.30
51486;DHT22;37565;51.352;6.412;2023-03-01T16:32:49;17.80;76.50
51486;DHT22;37565;51.352;6.412;2023-03-01T16:35:20;17.80;76.10
51486;DHT22;37565;51.352;6.412;2023-03-01T16:37:49;17.80;76.20
51486;DHT22;37565;51.352;6.412;2023-03-01T16:40:21;17.80;76.40
51486;DHT22;37565;51.352;6.412;2023-03-01T16:42:50;17.90;76.20
51486;DHT22;37565;51.352;6.412;2023-03-01T16:45:18;17.90;76.20
51486;DHT22;37565;51.352;6.412;2023-03-01T16:47:51;17.90;76.20
51486;DHT22;37565;51.352;6.412;2023-03-01T16:50:23;17.90;76.20
51486;DHT22;37565;51.352;6.412;2023-03-01T16:52:51;17.90;76.10
51486;DHT22;37565;51.352;6.412;2023-03-01T16:55:19;18.00;76.00
51486;DHT22;37565;51.352;6.412;2023-03-01T16:57:47;17.90;75.80
51486;DHT22;37565;51.352;6.412;2023-03-01T17:00:15;17.90;75.70
51486;DHT22;37565;51.352;6.412;2023-03-01T17:02:44;17.90;75.20
51486;DHT22;37565;51.352;6.412;2023-03-01T17:05:12;17.90;75.20
51486;DHT22;37565;51.352;6.412;2023-03-01T17:07:41;17.90;74.30
51486;DHT22;37565;51.352;6.412;2023-03-01T17:10:10;18.00;74.40
51486;DHT22;37565;51.352;6.412;2023-03-01T17:12:38;18.00;74.10
51486;DHT22;37565;51.352;6.412;2023-03-01T17:15:07;18.00;74.00
51486;DHT22;37565;51.352;6.412;2023-03-01T17:17:35;18.00;74.60
51486;DHT22;37565;51.352;6.412;2023-03-01T17:20:03;18.00;74.70
51486;DHT22;37565;51.352;6.412;2023-03-01T17:22:31;18.10;75.40
51486;DHT22;37565;51.352;6.412;2023-03-01T17:25:01;18.10;75.80
51486;DHT22;37565;51.352;6.412;2023-03-01T17:27:28;18.20;76.10
51486;DHT22;37565;51.352;6.412;2023-03-01T17:30:01;18.20;76.20
51486;DHT22;37565;51.352;6.412;2023-03-01T17:32:29;18.20;76.30
51486;DHT22;37565;51.352;6.412;2023-03-01T17:34:57;18.20;76.70
51486;DHT22;37565;51.352;6.412;2023-03-01T17:37:25;18.30;76.60
51486;DHT22;37565;51.352;6.412;2023-03-01T17:39:53;18.30;76.60
51486;DHT22;37565;51.352;6.412;2023-03-01T17:42:22;18.30;76.60
51486;DHT22;37565;51.352;6.412;2023-03-01T17:44:50;18.30;76.90
51486;DHT22;37565;51.352;6.412;2023-03-01T17:47:18;18.40;77.10
51486;DHT22;37565;51.352;6.412;2023-03-01T17:49:46;18.40;77.10
51486;DHT22;37565;51.352;6.412;2023-03-01T17:52:14;18.30;77.20
51486;DHT22;37565;51.352;6.412;2023-03-01T17:54:43;18.40;77.30
51486;DHT22;37565;51.352;6.412;2023-03-01T17:57:10;18.30;77.60
51486;DHT22;37565;51.352;6.412;2023-03-01T17:59:41;18.30;77.70
51486;DHT22;37565;51.352;6.412;2023-03-01T18:02:10;18.30;78.00
51486;DHT22;37565;51.352;6.412;2023-03-01T18:04:39;18.30;78.00
51486;DHT22;37565;51.352;6.412;2023-03-01T18:07:07;18.30;78.00
51486;DHT22;37565;51.352;6.412;2023-03-01T18:09:35;18.20;78.10
51486;DHT22;37565;51.352;6.412;2023-03-01T18:12:03;18.10;77.80
51486;DHT22;37565;51.352;6.412;2023-03-01T18:14:31;18.10;76.80
51486;DHT22;37565;51.352;6.412;2023-03-01T18:17:01;18.10;76.60
51486;DHT22;37565;51.352;6.412;2023-03-01T18:19:31;18.20;76.50
51486;DHT22;37565;51.352;6.412;2023-03-01T18:21:59;18.20;76.70
51486;DHT22;37565;51.352;6.412;2023-03-01T18:24:27;18.10;77.10
51486;DHT22;37565;51.352;6.412;2023-03-01T18:26:55;18.20;78.00
51486;DHT22;37565;51.352;6.412;2023-03-01T18:29:23;18.20;77.60
51486;DHT22;37565;51.352;6.412;2023-03-01T18:31:51;18.00;78.10
51486;DHT22;37565;51.352;6.412;2023-03-01T18:34:20;18.10;78.30
51486;DHT22;37565;51.352;6.412;2023-03-01T18:36:48;18.10;78.80
51486;DHT22;37565;51.352;6.412;2023-03-01T18:39:34;18.10;78.60
51486;DHT22;37565;51.352;6.412;2023-03-01T18:42:02;18.10;79.20
51486;DHT22;37565;51.352;6.412;2023-03-01T18:44:30;18.00;79.10
51486;DHT22;37565;51.352;6.412;2023-03-01T18:46:58;18.20;79.00
51486;DHT22;37565;51.352;6.412;2023-03-01T18:49:27;18.20;78.60
51486;DHT22;37565;51.352;6.412;2023-03-01T18:51:55;18.20;78.70
51486;DHT22;37565;51.352;6.412;2023-03-01T18:54:23;18.20;78.90
51486;DHT22;37565;51.352;6.412;2023-03-01T18:56:51;18.20;78.90
51486;DHT22;37565;51.352;6.412;2023-03-01T18:59:19;18.20;78.70
51486;DHT22;37565;51.352;6.412;2023-03-01T19:01:47;18.20;78.90
51486;DHT22;37565;51.352;6.412;2023-03-01T19:04:15;18.30;78.80
51486;DHT22;37565;51.352;6.412;2023-03-01T19:06:44;18.30;78.80
51486;DHT22;37565;51.352;6.412;2023-03-01T19:09:12;18.30;78.70
51486;DHT22;37565;51.352;6.412;2023-03-01T19:11:41;18.30;79.00
51486;DHT22;37565;51.352;6.412;2023-03-01T19:14:09;18.30;79.10
51486;DHT22;37565;51.352;6.412;2023-03-01T19:16:37;18.30;79.10
51486;DHT22;37565;51.352;6.412;2023-03-01T19:19:05;18.30;79.30
51486;DHT22;37565;51.352;6.412;2023-03-01T19:21:35;18.30;79.30
51486;DHT22;37565;51.352;6.412;2023-03-01T19:24:05;18.30;80.10
51486;DHT22;37565;51.352;6.412;2023-03-01T19:26:33;18.40;79.40
51486;DHT22;37565;51.352;6.412;2023-03-01T19:29:02;18.30;79.50
51486;DHT22;37565;51.352;6.412;2023-03-01T19:31:30;18.30;79.40
51486;DHT22;37565;51.352;6.412;2023-03-01T19:33:58;18.30;79.40
51486;DHT22;37565;51.352;6.412;2023-03-01T19:36:37;18.30;79.60
51486;DHT22;37565;51.352;6.412;2023-03-01T19:39:09;18.30;79.80
51486;DHT22;37565;51.352;6.412;2023-03-01T19:41:39;18.30;79.70
51486;DHT22;37565;51.352;6.412;2023-03-01T19:44:07;18.30;79.60
51486;DHT22;37565;51.352;6.412;2023-03-01T19:46:35;18.30;79.60
51486;DHT22;37565;51.352;6.412;2023-03-01T19:49:04;18.30;79.90
51486;DHT22;37565;51.352;6.412;2023-03-01T19:51:32;18.30;79.60
51486;DHT22;37565;51.352;6.412;2023-03-01T19:54:02;18.20;79.70
51486;DHT22;37565;51.352;6.412;2023-03-01T19:56:32;18.30;79.60
51486;DHT22;37565;51.352;6.412;2023-03-01T19:59:01;18.20;79.60
51486;DHT22;37565;51.352;6.412;2023-03-01T20:01:31;18.20;79.70
51486;DHT22;37565;51.352;6.412;2023-03-01T20:04:01;18.20;79.80
51486;DHT22;37565;51.352;6.412;2023-03-01T20:06:29;18.20;79.70
51486;DHT22;37565;51.352;6.412;2023-03-01T20:08:57;18.10;79.70
51486;DHT22;37565;51.352;6.412;2023-03-01T20:11:36;18.10;79.70
51486;DHT22;37565;51.352;6.412;2023-03-01T20:14:04;18.10;79.80
51486;DHT22;37565;51.352;6.412;2023-03-01T20:16:32;18.20;79.50
51486;DHT22;37565;51.352;6.412;2023-03-01T20:19:01;18.20;79.20
51486;DHT22;37565;51.352;6.412;2023-03-01T20:21:29;18.30;79.00
51486;DHT22;37565;51.352;6.412;2023-03-01T20:23:59;18.40;78.30
51486;DHT22;37565;51.352;6.412;2023-03-01T20:26:27;18.40;78.20
51486;DHT22;37565;51.352;6.412;2023-03-01T20:28:57;18.50;78.20
51486;DHT22;37565;51.352;6.412;2023-03-01T20:31:25;18.50;77.90
51486;DHT22;37565;51.352;6.412;2023-03-01T20:33:57;18.50;78.00
51486;DHT22;37565;51.352;6.412;2023-03-01T20:36:26;18.50;77.80
51486;DHT22;37565;51.352;6.412;2023-03-01T20:38:55;18.50;78.00
51486;DHT22;37565;51.352;6.412;2023-03-01T20:41:24;18.50;78.00
51486;DHT22;37565;51.352;6.412;2023-03-01T20:43:52;18.50;78.00
51486;DHT22;37565;51.352;6.412;2023-03-01T20:46:24;18.50;78.40
51486;DHT22;37565;51.352;6.412;2023-03-01T20:48:53;18.50;78.70
51486;DHT22;37565;51.352;6.412;2023-03-01T20:51:21;18.40;78.70
51486;DHT22;37565;51.352;6.412;2023-03-01T20:53:49;18.40;78.20
51486;DHT22;37565;51.352;6.412;2023-03-01T20:56:18;18.40;77.90
51486;DHT22;37565;51.352;6.412;2023-03-01T20:58:46;18.30;77.80
51486;DHT22;37565;51.352;6.412;2023-03-01T21:01:16;18.30;77.70
51486;DHT22;37565;51.352;6.412;2023-03-01T21:03:46;18.30;77.30
51486;DHT22;37565;51.352;6.412;2023-03-01T21:06:14;18.30;76.90
51486;DHT22;37565;51.352;6.412;2023-03-01T21:08:42;18.20;77.10
51486;DHT22;37565;51.352;6.412;2023-03-01T21:11:10;18.20;77.30
51486;DHT22;37565;51.352;6.412;2023-03-01T21:13:38;18.30;77.60
51486;DHT22;37565;51.352;6.412;2023-03-01T21:16:10;18.30;77.60
51486;DHT22;37565;51.352;6.412;2023-03-01T21:18:39;18.30;77.60
51486;DHT22;37565;51.352;6.412;2023-03-01T21:21:11;18.30;78.00
51486;DHT22;37565;51.352;6.412;2023-03-01T21:23:40;18.30;78.00
51486;DHT22;37565;51.352;6.412;2023-03-01T21:26:10;18.30;78.40
51486;DHT22;37565;51.352;6.412;2023-03-01T21:28:39;18.30;78.50
51486;DHT22;37565;51.352;6.412;2023-03-01T21:31:13;18.30;78.90
51486;DHT22;37565;51.352;6.412;2023-03-01T21:33:43;18.40;78.80
51486;DHT22;37565;51.352;6.412;2023-03-01T21:36:13;18.30;79.00
51486;DHT22;37565;51.352;6.412;2023-03-01T21:38:43;18.30;79.00
51486;DHT22;37565;51.352;6.412;2023-03-01T21:41:14;18.30;79.20
51486;DHT22;37565;51.352;6.412;2023-03-01T21:43:44;18.30;79.00
51486;DHT22;37565;51.352;6.412;2023-03-01T21:46:14;18.30;78.90
51486;DHT22;37565;51.352;6.412;2023-03-01T21:48:43;18.30;78.80
51486;DHT22;37565;51.352;6.412;2023-03-01T21:51:14;18.30;79.70
51486;DHT22;37565;51.352;6.412;2023-03-01T21:53:42;18.30;78.90
51486;DHT22;37565;51.352;6.412;2023-03-01T21:56:15;18.30;78.90
51486;DHT22;37565;51.352;6.412;2023-03-01T21:58:43;18.30;78.80
51486;DHT22;37565;51.352;6.412;2023-03-01T22:01:12;18.30;79.00
51486;DHT22;37565;51.352;6.412;2023-03-01T22:03:41;18.30;79.00
51486;DHT22;37565;51.352;6.412;2023-03-01T22:06:15;18.30;79.00
51486;DHT22;37565;51.352;6.412;2023-03-01T22:08:46;18.30;78.40
51486;DHT22;37565;51.352;6.412;2023-03-01T22:11:14;18.30;78.80
51486;DHT22;37565;51.352;6.412;2023-03-01T22:13:43;18.30;78.90
51486;DHT22;37565;51.352;6.412;2023-03-01T22:16:13;18.30;78.60
51486;DHT22;37565;51.352;6.412;2023-03-01T22:18:41;18.30;78.70
51486;DHT22;37565;51.352;6.412;2023-03-01T22:21:08;18.30;78.70
51486;DHT22;37565;51.352;6.412;2023-03-01T22:23:39;18.30;78.60
51486;DHT22;37565;51.352;6.412;2023-03-01T22:26:08;18.30;78.80
51486;DHT22;37565;51.352;6.412;2023-03-01T22:28:46;18.30;78.80
51486;DHT22;37565;51.352;6.412;2023-03-01T22:31:14;18.30;78.60
51486;DHT22;37565;51.352;6.412;2023-03-01T22:33:42;18.20;78.90
51486;DHT22;37565;51.352;6.412;2023-03-01T22:36:10;18.30;78.80
51486;DHT22;37565;51.352;6.412;2023-03-01T22:38:39;18.30;78.80
51486;DHT22;37565;51.352;6.412;2023-03-01T22:41:07;18.30;78.70
51486;DHT22;37565;51.352;6.412;2023-03-01T22:43:35;18.30;78.50
51486;DHT22;37565;51.352;6.412;2023-03-01T22:46:11;18.30;78.70
51486;DHT22;37565;51.352;6.412;2023-03-01T22:48:39;18.30;78.70
51486;DHT22;37565;51.352;6.412;2023-03-01T22:51:12;18.30;78.60
51486;DHT22;37565;51.352;6.412;2023-03-01T22:53:42;18.30;78.70
51486;DHT22;37565;51.352;6.412;2023-03-01T22:56:12;18.30;78.70
51486;DHT22;37565;51.352;6.412;2023-03-01T22:58:40;18.30;78.90
51486;DHT22;37565;51.352;6.412;2023-03-01T23:01:10;18.30;78.80
51486;DHT22;37565;51.352;6.412;2023-03-01T23:03:37;18.30;79.00
51486;DHT22;37565;51.352;6.412;2023-03-01T23:06:06;18.30;78.90
51486;DHT22;37565;51.352;6.412;2023-03-01T23:08:34;18.30;78.60
51486;DHT22;37565;51.352;6.412;2023-03-01T23:11:08;18.30;79.00
51486;DHT22;37565;51.352;6.412;2023-03-01T23:13:36;18.30;78.60
51486;DHT22;37565;51.352;6.412;2023-03-01T23:16:05;18.30;78.90
51486;DHT22;37565;51.352;6.412;2023-03-01T23:18:33;18.30;78.60
51486;DHT22;37565;51.352;6.412;2023-03-01T23:21:07;18.30;78.90
51486;DHT22;37565;51.352;6.412;2023-03-01T23:23:35;18.30;79.00
51486;DHT22;37565;51.352;6.412;2023-03-01T23:26:04;18.30;78.90
51486;DHT22;37565;51.352;6.412;2023-03-01T23:28:33;18.30;79.20
51486;DHT22;37565;51.352;6.412;2023-03-01T23:31:04;18.30;79.00
51486;DHT22;37565;51.352;6.412;2023-03-01T23:33:32;18.30;79.00
51486;DHT22;37565;51.352;6.412;2023-03-01T23:36:04;18.30;79.10
51486;DHT22;37565;51.352;6.412;2023-03-01T23:38:32;18.30;79.00
51486;DHT22;37565;51.352;6.412;2023-03-01T23:41:00;18.30;79.20
51486;DHT22;37565;51.352;6.412;2023-03-01T23:43:29;18.30;79.20
51486;DHT22;37565;51.352;6.412;2023-03-01T23:45:58;18.30;79.20
51486;DHT22;37565;51.352;6.412;2023-03-01T23:48:26;18.30;79.30
51486;DHT22;37565;51.352;6.412;2023-03-01T23:50:54;18.30;79.10
51486;DHT22;37565;51.352;6.412;2023-03-01T23:53:22;18.30;79.10
51486;DHT22;37565;51.352;6.412;2023-03-01T23:55:52;18.40;79.00
51486;DHT22;37565;51.352;6.412;2023-03-01T23:58:20;18.30;79.00
